Jamestown, CA

3:48 AM PDT on October 22, 2014 (GMT -0700)
Six Mile Village Vallecito, CA | Change Station
CLOSE
Current Station
Personal Weather Station
Location: Vallecito, CA
Elevation: 1720 ft
Nearby Weather Stations

Elev 1720 ft 38.09 °N, 120.50 °W | Updated 4 seconds ago

Clear
Clear
43.2 °F
Feels Like 43 °F
N
0.0
Wind Variable Wind from NE
Gusts 0.0 mph

Today
High -- | Low -- °F
--% Chance of Precip.
Yesterday
High -- | Low -- °F
Precip. -- in
7:17 AM 6:14 PM
Waning Crescent, 2% visible
Pressure 30.02 in
Visibility 10.0 miles
Clouds Clear
Windchill 43 °F
Dew Point 38 °F
Humidity 83%
Rainfall 0.00 in
Snow Depth Not available.
UV 0 out of 12
Pollen 3.70 out of 12
Ozone Good
Flu Activity Sporadic
METAR KO22 221035Z AUTO 00000KT 10SM CLR 06/02 A3002 RMK AO1

More Conditions Fewer Conditions

Pressure 30.02 in
Visibility 10.0 miles
Clouds Clear
Windchill 43 °F
Dew Point 38 °F
Humidity 83%
Rainfall 0.00 in
Snow Depth Not available.
UV 0 out of 12
Pollen 3.70 out of 12
Ozone Good
Flu Activity Sporadic
METAR KO22 221035Z AUTO 00000KT 10SM CLR 06/02 A3002 RMK AO1

More Conditions Fewer Conditions

10-Day Weather Forecast

Almanac

Astronomy

Oct. 22, 2014 Rise Set
Actual Time 7:17 AM PDT 6:14 PM PDT
Civil Twilight 6:50 AM PDT 6:41 PM PDT
Nautical Twilight 6:19 AM PDT 7:12 PM PDT
Astronomical Twilight 5:49 AM PDT 7:42 PM PDT
Moon 6:04 AM PDT 5:43 PM PDT
Length of Visible Light 11h 50m
Length of Day
10h 57m
Tomorrow will be 2m 17s shorter.
Waning Crescent, 2% of the Moon is Illuminated
Today
Waning Crescent
Oct 23
New
Oct 30
First Quarter
Nov 6
Full
Nov 14
Last Quarter

Today's Extremes

State Highs State Lows

Community

WunderPhotos

Upload Photos

1,763,902 photos uploaded!

Nearby

Air Quality

  Air Quality AQ Index Pollutant
Yesterday Good
OZONE
Current Good
OZONE
Wednesday Good
OZONE
Thursday Good
OZONE
Friday Good
OZONE
Saturday Good
OZONE
Sunday Good
OZONE

Snow Depth

Station Depth Elevation
Leavitt Lake 1 in 9400 ft
Sonora Pass 0 in 8800 ft
Blue Lakes 0 in 8000 ft
Ebbetts Pass 0 in 8700 ft
Leavitt Meadows 1 in 7200 ft

Earthquake Activity

City Distance Mag. Time & Date
Mammoth Lakes, California 95 miles 3.0 11:10 PM PDT
2014-10-20
Dixon Lane-Meadow Creek, California 111 miles 2.6 5:32 PM PDT
2014-10-18
Minimum magnitude displayed is 2.5.

Coastal Water Temperatures

Place Temperature
No Stations Reporting

Nearby Weather Stations